Terminal Aerodrome Forecast
Issued by NWS

Home | Current Version | Previous Version | Text Only | Print | Product List | Glossary On
Versions: 1 2 3 4 5 6 7 8 9 10 11 12 13 14
000
FTUS41 KCAR 021720
TAFHUL
TAF
KHUL 021720Z 0218/0318 26008KT P6SM VCTS SCT040CB
     FM021900 26009KT P6SM VCTS SCT040CB BKN250
     FM022300 VRB04KT P6SM BKN140
     FM031400 34008G16KT P6SM FEW250=

USA.gov is the U.S. government's official web portal to all federal, state and local government web resources and services.